Anza Borrego Desert Research Center, California Weather observations

Data are for 10 minute period ending at time listed.
 Day   Time   Solar   Ave.   Ave.  Ave.  Vector  Max.   Baro.   Total    
  of    of     Rad.   Air    Rel.  Wind   Wind   Wind  Press.  Precip.   
Year   Day            Temp.  Hum.  Speed  Dir.   Gust                    
2014   (PST)  Kw/m2    F      %     mph   deg.    mph    mb.     in.     
-------------------------------------------------------------------------
 304    0:40   0.00   69.7    26    3.4   262     6.8   501.8    0.00 
 304    0:50   0.00   68.8    27    3.6   318     5.0   501.8    0.00 
 304    1:00   0.00   67.5    28    1.8   319     3.9   501.8    0.00 
 304    1:10   0.00   67.8    29    1.8   184     2.4   501.8    0.00 
 304    1:20   0.00   66.3    29    3.4   194     5.0   501.8    0.00 
 304    1:30   0.00   65.3    31    4.3   211     5.3   501.8    0.00 
 304    1:40   0.00   64.9    30    3.7   209     4.7   501.8    0.00 
 304    1:50   0.00   65.4    29    3.3   214     4.2   501.8    0.00 
 304    2:00   0.00   63.8    30    2.6   218     3.8   501.8    0.00 
 304    2:10   0.00   64.5    30    2.7   240     3.9   501.8    0.00 
 304    2:20   0.00   64.7    29    2.2   257     4.9   501.8    0.00 
 304    2:30   0.00   65.0    29    2.7   258     4.2   501.8    0.00 
 304    2:40   0.00   64.8    29    2.6   258     3.8   501.8    0.00 
 304    2:50   0.00   65.7    28    2.7   248     4.6   501.8    0.00 
 304    3:00   0.00   65.3    28    3.8   244     5.7   501.8    0.00 
 304    3:10   0.00   64.7    28    5.3   256     7.2   501.8    0.00 
 304    3:20   0.00   65.5    28    4.8   263     6.3   501.8    0.00 
 304    3:30   0.00   68.1    26    3.0   266     5.0   501.8    0.00 
 304    3:40   0.00   67.6    27    1.4   280     3.2   501.8    0.00 
 304    3:50   0.00   66.1    28    2.0   246     4.5   501.8    0.00 
 304    4:00   0.00   65.3    28    2.0   225     4.3   501.8    0.00 
 304    4:10   0.00   63.9    30    2.0   256     3.1   501.8    0.00 
 304    4:20   0.00   63.7    32    2.9   230     4.7   501.8    0.00 
 304    4:30   0.00   65.1    31    3.6   239     4.4   501.8    0.00 
 304    4:40   0.00   63.8    32    3.0   248     3.7   501.8    0.00 
 304    4:50   0.00   62.9    32    2.7   268     4.1   501.8    0.00 
 304    5:00   0.00   62.1    34    3.2   255     5.6   501.8    0.00 
 304    5:10   0.00   64.3    31    2.8   234     3.8   501.8    0.00 
 304    5:20   0.00   62.9    32    3.2   227     3.9   501.8    0.00 
 304    5:30   0.00   60.6    34    3.7   216     4.2   501.8    0.00 
 304    5:40   0.00   61.4    34    3.5   218     5.7   501.8    0.00 
 304    5:50   0.00   62.7    33    4.3   220     5.9   501.8    0.00 
 304    6:00   0.00   64.8    32    3.7   227     4.8   501.8    0.00 
 304    6:10   0.00   64.3    31    4.1   237     5.2   501.8    0.00 
 304    6:20   0.01   63.0    33    3.7   244     4.7   501.8    0.00 
 304    6:30   0.03   64.3    31    2.8   254     3.6   501.8    0.00 
 304    6:40   0.06   65.7    30    3.0   252     3.9   501.8    0.00 
 304    6:50   0.08   67.2    29    2.7   274     3.9   501.8    0.00 
 304    7:00   0.11   70.1    27    1.1   335     2.2   501.8    0.00 
 304    7:10   0.14   72.3    26    1.7   216     2.4   501.8    0.00 
 304    7:20   0.17   73.7    25    1.7   256     2.3   501.8    0.00 
 304    7:30   0.20   76.7    23    0.7   281     1.5   501.8    0.00 
 304    7:40   0.23   80.3    21    0.1   247     0.9   501.8    0.00 
 304    7:50   0.27   82.2    20    0.7   182     2.0   501.8    0.00 
 304    8:00   0.30   81.3    20    1.5   198     2.4   501.8    0.00 
 304    8:10   0.33   82.1    20    2.2   174     3.6   501.8    0.00 
 304    8:20   0.36   81.1    20    2.4   170     3.7   501.8    0.00 
 304    8:30   0.39   80.9    20    2.6   145     4.1   501.9    0.00 
 304    8:40   0.42   81.1    20    2.2   147     3.9   501.9    0.00 
 304    8:50   0.45   81.2    20    3.9   147     6.0   502.0    0.00 
 304    9:00   0.47   81.0    20    3.3   152     5.7   502.0    0.00 
 304    9:10   0.50   81.4    20    3.4   137     5.6   502.0    0.00 
 304    9:20   0.52   81.0    20    5.0   136     6.7   502.0    0.00 
 304    9:30   0.55   81.4    20    4.2   143     6.6   502.0    0.00 
 304    9:40   0.57   82.2    19    3.6   123     6.0   502.0    0.00 
 304    9:50   0.58   82.4    19    3.2   112     5.1   502.0    0.00 
 304   10:00   0.60   82.7    19    4.3   106     8.3   502.0    0.00 
 304   10:10   0.62   82.4    19    5.6    95     8.9   502.0    0.00 
 304   10:20   0.63   82.2    19    4.6    86     6.8   502.0    0.00 
 304   10:30   0.65   82.9    18    3.4    81     7.0   502.0    0.00 
 304   10:40   0.66   83.8    18    3.5   106     6.1   502.1    0.00 
 304   10:50   0.67   83.9    18    3.7   103     6.9   502.1    0.00 
 304   11:00   0.67   83.8    18    1.6   116     4.1   502.1    0.00 
 304   11:10   0.68   85.0    17    3.0    83     6.4   502.1    0.00 
 304   11:20   0.68   84.3    17    3.8    85     8.0   502.1    0.00 
 304   11:30   0.68   84.3    17    4.9   104     9.9   502.1    0.00 
 304   11:40   0.68   84.4    17    4.7    75     9.6   502.1    0.00 
 304   11:50   0.68   84.2    18    4.5    66    12.2   502.1    0.00 
 304   12:00   0.68   84.5    18    4.2   102     7.3   502.1    0.00 
 304   12:10   0.67   84.6    18    5.4   111    10.0   502.1    0.00 
 304   12:20   0.66   84.8    18    5.1    95    12.6   502.1    0.00 
 304   12:30   0.65   84.5    19    6.4   107    11.2   502.1    0.00 
 304   12:40   0.62   84.9    19    5.3   107    13.7   502.1    0.00 
 304   12:50   0.62   85.4    19    6.8   125    10.6   502.1    0.00 
 304   13:00   0.61   85.0    19    6.6   154    10.7   502.1    0.00 
 304   13:10   0.59   85.5    19    6.0   150    11.0   502.1    0.00 
 304   13:20   0.58   85.1    20    6.3   143    13.2   502.1    0.00 
 304   13:30   0.56   85.2    21    7.1    93    11.0   502.1    0.00 
 304   13:40   0.54   85.1    22    7.4   108    11.5   502.1    0.00 
 304   13:50   0.51   85.3    23    6.1   107    11.7   502.1    0.00 
 304   14:00   0.49   85.4    24    6.9    99    11.0   502.1    0.00 
 304   14:10   0.47   85.4    24    6.5   131    11.1   502.1    0.00 
 304   14:20   0.44   85.8    22    4.2   144     7.7   502.1    0.00 
 304   14:30   0.41   85.7    22    5.2    98    10.1   502.1    0.00 
 304   14:40   0.38   85.6    22    5.9   116     9.7   502.1    0.00 
 304   14:50   0.35   85.6    23    5.1   113    10.3   502.1    0.00 
 304   15:00   0.33   85.4    23    6.5    78    10.2   502.1    0.00 
 304   15:10   0.29   85.6    25    4.6   124     7.8   502.1    0.00 
 304   15:20   0.27   86.5    25    2.1   124     9.1   502.1    0.00 
 304   15:30   0.21   85.0    27    7.9   306    15.7   502.1    0.00 
 304   15:40   0.14   82.6    29   12.0   318    17.2   502.1    0.00 
 304   15:50   0.10   81.5    31   10.4   315    18.1   502.0    0.00 
 304   16:00   0.06   80.5    32   11.9   314    17.2   502.0    0.00 
 304   16:10   0.05   80.0    33   10.7   311    17.7   502.0    0.00 
 304   16:20   0.04   79.2    34   10.3   306    16.7   502.0    0.00 
 304   16:30   0.04   78.6    35   11.2   312    17.2   502.0    0.00 
 304   16:40   0.02   78.1    36   10.0   303    15.1   502.0    0.00 
 304   16:50   0.01   77.4    37    9.5   312    15.0   502.0    0.00 
 304   17:00   0.00   76.7    39    9.0   310    16.1   501.9    0.00 
 304   17:10   0.00   76.1    40    9.7   286    16.1   501.9    0.00 
 304   17:20   0.00   75.8    40    7.7   290    14.6   501.8    0.00 
 304   17:30   0.00   75.4    40    6.8   283    13.2   501.8    0.00 
 304   17:40   0.00   74.9    41    7.6   295    12.1   501.8    0.00 
 304   17:50   0.00   74.6    42    8.9   311    15.9   501.8    0.00 
 304   18:00   0.00   74.2    42    8.6   306    14.9   501.8    0.00 
 304   18:10   0.00   74.0    42    8.9   311    14.4   501.8    0.00 
 304   18:20   0.00   73.9    42    9.7   305    14.2   501.8    0.00 
 304   18:30   0.00   73.8    42    9.5   307    16.7   501.8    0.00 
 304   18:40   0.00   73.3    43    7.3   352    11.5   501.8    0.00 
 304   18:50   0.00   72.2    46    5.0     6     8.0   501.8    0.00 
 304   19:00   0.00   72.3    45    4.5   354     8.8   501.8    0.00 
 304   19:10   0.00   72.6    44    3.8     8     6.9   501.8    0.00 
 304   19:20   0.00   72.5    43    6.8   329    13.3   501.8    0.00 
 304   19:30   0.00   72.2    43   11.9   308    18.6   501.8    0.00 
 304   19:40   0.00   71.7    44    7.5   284    17.1   501.8    0.00 
 304   19:50   0.00   71.1    45   10.1   298    19.0   501.8    0.00 
 304   20:00   0.00   71.2    45    6.0   295    12.4   501.8    0.00 
 304   20:10   0.00   70.7    46    8.4   275    13.4   501.8    0.00 
 304   20:20   0.00   70.7    46    7.8   301    13.7   501.8    0.00 
 304   20:30   0.00   70.9    44    6.5   300    14.9   501.8    0.00 
 304   20:40   0.00   70.7    45    7.2   306    13.2   501.8    0.00 
 304   20:50   0.00   70.3    45    5.3   255    10.7   501.8    0.00 
 304   21:00   0.00   70.3    46    6.7   263    11.5   501.8    0.00 
 304   21:10   0.00   70.4    45    6.6   275    14.9   501.8    0.00 
 304   21:20   0.00   70.3    45   10.1   255    23.4   501.8    0.00 
 304   21:30   0.00   70.1    46   16.1   275    29.7   501.8    0.00 
 304   21:40   0.00   69.8    46   17.3   283    27.2   501.8    0.00 
 304   21:50   0.00   69.5    47   13.8   268    26.6   501.8    0.00 
 304   22:00   0.00   69.5    48   16.2   252    25.6   501.8    0.00 
 304   22:10   0.00   70.1    47   13.7   316    30.2   501.8    0.00 
 304   22:20   0.00   71.2    44   13.7   356    34.2   501.8    0.00 
 304   22:30   0.00   71.2    45    6.9   338    16.5   501.8    0.00 
 304   22:40   0.00   69.9    49    4.8    79    10.4   501.8    0.00 
 304   22:50   0.00   69.9    48    8.0    70    14.1   501.8    0.00 
 304   23:00   0.00   69.6    48    8.9    65    12.7   501.8    0.00 
 304   23:10   0.00   69.5    47    7.9    70    13.6   501.8    0.00 
 304   23:20   0.00   69.4    47    5.5    66     9.3   501.8    0.00 
 304   23:30   0.00   68.9    49   10.5   130    32.7   501.8    0.00 
 304   23:40   0.00   68.8    49   15.0   231    30.5   501.8    0.00 
 304   23:50   0.00   68.7    49   12.9   243    26.3   501.8    0.00 
 305    0:00   0.00   68.3    48   12.3   194    40.8   501.8    0.00 
 305    0:10   0.00   68.5    48    9.6    41    20.9   501.8    0.00 
 305    0:20   0.00   68.2    47   12.0   212    46.0   501.8    0.00 
 305    0:30   0.00   68.1    47    5.5    33    14.0   501.8    0.00 

Return to Anza Borrego Desert Research Center graphs page.


Western Regional Climate Center,wrcc@dri.edu